Time;durP1;ratioP1;P1;durP2;ratioP2;P2;SDS_P1;SDS_P2;PMS_P1;PMS_P2;Temp;Humidity;BMP_temperature;BMP_pressure;BME280_temperature;BME280_humidity;BME280_pressure;Samples;Min_cycle;Max_cycle;Signal;HPM_P1;HPM_P2
2023/07/22 00:00:40;;;;;;;13.98;5.75;;;13.00;99.90;;;;;;5072015;28;20126;-61
2023/07/22 00:03:07;;;;;;;12.77;5.78;;;13.00;99.90;;;;;;5052927;28;20095;-62
2023/07/22 00:05:34;;;;;;;9.73;5.18;;;13.00;99.90;;;;;;5071669;28;20060;-62
2023/07/22 00:08:00;;;;;;;8.10;5.25;;;13.00;99.90;;;;;;5053320;28;20102;-62
2023/07/22 00:10:27;;;;;;;10.75;5.78;;;13.00;99.90;;;;;;5053125;28;20056;-62
2023/07/22 00:12:54;;;;;;;11.77;5.80;;;12.90;99.90;;;;;;5053676;28;20063;-62
2023/07/22 00:15:24;;;;;;;10.30;5.35;;;12.90;99.90;;;;;;5053067;28;20067;-63
2023/07/22 00:17:52;;;;;;;11.88;5.43;;;12.80;99.90;;;;;;5053436;28;20488;-60
2023/07/22 00:20:20;;;;;;;8.73;4.60;;;12.80;99.90;;;;;;5071267;28;20059;-61
2023/07/22 00:22:47;;;;;;;8.52;5.00;;;12.80;99.90;;;;;;5071108;28;20045;-61
2023/07/22 00:25:14;;;;;;;9.10;4.30;;;12.70;99.90;;;;;;5071081;28;20484;-61
2023/07/22 00:27:42;;;;;;;8.27;4.72;;;12.70;99.90;;;;;;5053409;28;20041;-61
2023/07/22 00:30:10;;;;;;;10.15;5.05;;;12.60;99.90;;;;;;5070772;28;20044;-62
2023/07/22 00:32:40;;;;;;;10.77;4.55;;;12.60;99.90;;;;;;5072958;28;20530;-62
2023/07/22 00:35:09;;;;;;;11.40;5.28;;;12.60;99.90;;;;;;5075025;28;20094;-62
2023/07/22 00:37:36;;;;;;;7.63;4.70;;;12.60;99.90;;;;;;5056015;28;20049;-61
2023/07/22 00:40:06;;;;;;;12.88;4.80;;;12.50;99.90;;;;;;5057066;28;20056;-62
2023/07/22 00:42:33;;;;;;;11.45;5.50;;;12.50;99.90;;;;;;5056934;28;20057;-62
2023/07/22 00:44:59;;;;;;;10.95;5.55;;;12.50;99.90;;;;;;5056158;28;20122;-62
2023/07/22 00:47:27;;;;;;;12.50;5.50;;;12.40;99.90;;;;;;5074893;28;20044;-63
2023/07/22 00:49:56;;;;;;;12.15;5.40;;;12.40;99.90;;;;;;5074536;28;20053;-62
2023/07/22 00:52:23;;;;;;;12.60;6.10;;;12.40;99.90;;;;;;5056039;28;20101;-62
2023/07/22 00:54:50;;;;;;;12.50;6.03;;;12.30;99.90;;;;;;5054405;28;20110;-65
2023/07/22 00:57:18;;;;;;;10.43;5.93;;;12.30;99.90;;;;;;5056579;28;20400;-64
2023/07/22 00:59:45;;;;;;;11.07;5.28;;;12.20;99.90;;;;;;5072013;28;20119;-64
2023/07/22 01:02:12;;;;;;;13.48;6.13;;;12.20;99.90;;;;;;5074060;28;20439;-64
2023/07/22 01:04:40;;;;;;;10.00;5.55;;;12.10;99.90;;;;;;5055605;28;20554;-64
2023/07/22 01:07:10;;;;;;;13.55;5.38;;;12.10;99.90;;;;;;5055890;28;20110;-64
2023/07/22 01:09:37;;;;;;;11.48;5.20;;;12.10;99.90;;;;;;5074555;28;20042;-64
2023/07/22 01:12:06;;;;;;;14.35;6.07;;;12.00;99.90;;;;;;5071519;28;20433;-64
2023/07/22 01:14:33;;;;;;;10.27;6.20;;;12.00;99.90;;;;;;5056148;28;20402;-63
2023/07/22 01:17:01;;;;;;;14.00;7.03;;;12.00;99.90;;;;;;5056013;28;20049;-63
2023/07/22 01:19:29;;;;;;;9.75;5.70;;;11.90;99.90;;;;;;5055261;28;20045;-63
2023/07/22 01:21:57;;;;;;;11.85;5.50;;;12.00;99.90;;;;;;5074302;28;20053;-63
2023/07/22 01:24:25;;;;;;;10.68;5.15;;;11.90;99.90;;;;;;5071074;28;20049;-63
2023/07/22 01:26:52;;;;;;;10.77;5.47;;;12.00;99.90;;;;;;5073215;28;20555;-63
2023/07/22 01:29:19;;;;;;;13.48;6.32;;;11.90;99.90;;;;;;5074002;28;20041;-62
2023/07/22 01:31:49;;;;;;;13.73;5.97;;;11.90;99.90;;;;;;5073767;28;20102;-62
2023/07/22 01:34:16;;;;;;;12.00;6.00;;;11.90;99.90;;;;;;5054528;28;20078;-63
2023/07/22 01:36:44;;;;;;;10.18;4.65;;;11.90;99.90;;;;;;5071797;28;20045;-63
2023/07/22 01:39:11;;;;;;;12.25;5.55;;;11.90;99.90;;;;;;5055388;28;20040;-63
2023/07/22 01:41:40;;;;;;;10.27;5.10;;;11.80;99.90;;;;;;5053305;28;20551;-63
2023/07/22 01:44:07;;;;;;;12.18;5.40;;;11.80;99.90;;;;;;5055240;28;20060;-64
2023/07/22 01:46:35;;;;;;;10.10;5.68;;;11.80;99.90;;;;;;5073502;28;20411;-64
2023/07/22 01:49:05;;;;;;;11.52;5.30;;;11.80;99.90;;;;;;5054966;28;20044;-63
2023/07/22 01:51:32;;;;;;;10.73;4.65;;;11.70;99.90;;;;;;5055463;28;20052;-63
2023/07/22 01:53:59;;;;;;;8.93;4.68;;;11.80;99.90;;;;;;5073096;28;20090;-63
2023/07/22 01:56:26;;;;;;;8.50;4.95;;;11.70;99.90;;;;;;5055440;28;20051;-63
2023/07/22 01:58:54;;;;;;;13.68;4.88;;;11.70;99.90;;;;;;5071199;28;20048;-62
2023/07/22 02:01:21;;;;;;;9.80;5.18;;;11.70;99.90;;;;;;5072357;28;20056;-63
2023/07/22 02:03:48;;;;;;;9.45;4.75;;;11.60;99.90;;;;;;5073387;28;20055;-64
2023/07/22 02:06:15;;;;;;;11.63;5.18;;;11.60;99.90;;;;;;5073035;28;20385;-63
2023/07/22 02:08:42;;;;;;;11.05;5.00;;;11.60;99.90;;;;;;5037286;28;20107;-63
2023/07/22 02:11:09;;;;;;;11.07;4.95;;;11.50;99.90;;;;;;5052929;28;20052;-63
2023/07/22 02:13:36;;;;;;;9.07;5.13;;;11.50;99.90;;;;;;5034687;28;20057;-63
2023/07/22 02:16:05;;;;;;;14.20;5.53;;;11.50;99.90;;;;;;5052442;28;20378;-63
2023/07/22 02:18:32;;;;;;;12.40;5.10;;;11.50;99.90;;;;;;5052985;28;20040;-63
2023/07/22 02:20:59;;;;;;;12.02;4.65;;;11.50;99.90;;;;;;5053094;28;20049;-63
2023/07/22 02:23:26;;;;;;;7.85;4.50;;;11.40;99.90;;;;;;5034047;28;20057;-63
2023/07/22 02:25:54;;;;;;;10.20;5.28;;;11.40;99.90;;;;;;5034955;28;20057;-63
2023/07/22 02:28:23;;;;;;;9.85;4.57;;;11.40;99.90;;;;;;5032858;28;20067;-63
2023/07/22 02:30:52;;;;;;;12.48;4.80;;;11.40;99.90;;;;;;5052146;28;20226;-63
2023/07/22 02:33:21;;;;;;;10.40;4.30;;;11.30;99.90;;;;;;5052991;28;20381;-64
2023/07/22 02:35:49;;;;;;;10.68;4.80;;;11.30;99.90;;;;;;5050740;28;20118;-64
2023/07/22 02:38:15;;;;;;;11.35;4.72;;;11.30;99.90;;;;;;5033835;28;20474;-64
2023/07/22 02:40:43;;;;;;;7.82;4.13;;;11.30;99.90;;;;;;5052396;28;20044;-64
2023/07/22 02:43:09;;;;;;;10.15;4.65;;;11.30;99.90;;;;;;5033792;28;20499;-64
2023/07/22 02:45:38;;;;;;;15.10;5.15;;;11.30;99.90;;;;;;5034635;28;20052;-64
2023/07/22 02:48:05;;;;;;;9.38;5.18;;;11.30;99.90;;;;;;5034409;28;20459;-63
2023/07/22 02:50:33;;;;;;;10.68;5.30;;;11.20;99.90;;;;;;5051694;28;20056;-63
2023/07/22 02:53:00;;;;;;;11.40;5.43;;;11.30;99.90;;;;;;5034233;28;20566;-63
2023/07/22 02:55:28;;;;;;;10.32;5.35;;;11.20;99.90;;;;;;5051965;28;20045;-63
2023/07/22 02:57:55;;;;;;;15.05;4.85;;;11.20;99.90;;;;;;5033761;28;20103;-63
2023/07/22 03:00:24;;;;;;;10.90;5.38;;;11.20;99.90;;;;;;5052177;28;20094;-64
2023/07/22 03:02:52;;;;;;;9.68;5.50;;;11.20;99.90;;;;;;5052349;28;20413;-63
2023/07/22 03:05:19;;;;;;;9.35;5.10;;;11.10;99.90;;;;;;5051388;28;20800;-64
2023/07/22 03:07:48;;;;;;;14.65;5.18;;;11.10;99.90;;;;;;5061238;28;20460;-63
2023/07/22 03:10:15;;;;;;;15.57;5.63;;;11.10;99.90;;;;;;5054209;28;20040;-64
2023/07/22 03:12:42;;;;;;;10.95;5.15;;;11.10;99.90;;;;;;5071730;28;20067;-63
2023/07/22 03:15:09;;;;;;;13.52;4.93;;;11.10;99.90;;;;;;5070049;28;20041;-63
2023/07/22 03:17:37;;;;;;;9.43;5.38;;;11.10;99.90;;;;;;5053917;28;20057;-63
2023/07/22 03:20:08;;;;;;;13.05;5.45;;;11.00;99.90;;;;;;5071598;28;20474;-63
2023/07/22 03:22:35;;;;;;;12.68;5.50;;;11.00;99.90;;;;;;5053980;28;20441;-61
2023/07/22 03:25:07;;;;;;;12.32;5.68;;;11.10;99.90;;;;;;5071922;28;20059;-61
2023/07/22 03:27:34;;;;;;;9.77;5.32;;;11.00;99.90;;;;;;5070949;28;20044;-61
2023/07/22 03:30:02;;;;;;;10.82;5.32;;;11.00;99.90;;;;;;5069625;28;20378;-61
2023/07/22 03:32:29;;;;;;;9.07;5.13;;;11.00;99.90;;;;;;5071060;28;20056;-62
2023/07/22 03:34:55;;;;;;;9.65;5.32;;;11.00;99.90;;;;;;5071793;28;20569;-61
2023/07/22 03:37:22;;;;;;;11.55;4.95;;;11.00;99.90;;;;;;5071922;28;20052;-61
2023/07/22 03:39:50;;;;;;;11.35;5.93;;;11.00;99.90;;;;;;5071397;28;20041;-61
2023/07/22 03:42:18;;;;;;;10.57;5.95;;;11.00;99.90;;;;;;5072031;28;20048;-62
2023/07/22 03:44:45;;;;;;;10.30;5.80;;;11.00;99.90;;;;;;5072219;28;20044;-62
2023/07/22 03:47:12;;;;;;;9.27;5.22;;;11.00;99.90;;;;;;5071250;28;20051;-61
2023/07/22 03:49:39;;;;;;;10.13;5.60;;;11.00;99.90;;;;;;5053494;28;20048;-62
2023/07/22 03:52:08;;;;;;;8.57;4.95;;;11.10;99.90;;;;;;5071976;28;20048;-63
2023/07/22 03:54:34;;;;;;;9.55;5.47;;;11.10;99.90;;;;;;5071347;28;20052;-62
2023/07/22 03:57:01;;;;;;;13.63;5.50;;;11.20;99.90;;;;;;5053882;28;20048;-61
2023/07/22 03:59:30;;;;;;;11.30;4.70;;;11.30;99.90;;;;;;5071552;28;20118;-61
2023/07/22 04:01:56;;;;;;;9.13;5.50;;;11.40;99.90;;;;;;5053154;28;20098;-61
2023/07/22 04:04:23;;;;;;;10.10;5.28;;;11.40;99.90;;;;;;5053735;28;20056;-61
2023/07/22 04:06:50;;;;;;;7.97;5.13;;;11.50;99.90;;;;;;5072068;28;20464;-61
2023/07/22 04:09:17;;;;;;;10.52;5.10;;;11.50;99.90;;;;;;5074547;28;20056;-61
2023/07/22 04:11:44;;;;;;;11.93;5.00;;;11.60;99.90;;;;;;5075559;28;20044;-62
2023/07/22 04:14:12;;;;;;;11.98;5.38;;;11.70;99.90;;;;;;5075107;28;20492;-60
2023/07/22 04:16:40;;;;;;;11.32;5.47;;;11.70;99.90;;;;;;5074492;28;20123;-64
2023/07/22 04:19:07;;;;;;;9.20;5.00;;;11.80;99.90;;;;;;5072874;28;20048;-64
2023/07/22 04:21:34;;;;;;;9.77;5.18;;;11.80;99.90;;;;;;5074711;28;20507;-63
2023/07/22 04:24:01;;;;;;;10.23;4.97;;;11.90;99.90;;;;;;5073312;28;20040;-64
2023/07/22 04:26:28;;;;;;;9.32;5.15;;;12.00;99.90;;;;;;5057120;28;20057;-64
2023/07/22 04:28:56;;;;;;;8.40;4.80;;;12.10;99.90;;;;;;5056630;28;20454;-64
2023/07/22 04:31:22;;;;;;;9.45;4.97;;;12.10;99.90;;;;;;5075059;28;20052;-64
2023/07/22 04:33:51;;;;;;;12.40;5.15;;;12.10;99.90;;;;;;5075199;28;20432;-63
2023/07/22 04:36:18;;;;;;;10.10;5.28;;;12.20;99.90;;;;;;5074028;28;20083;-63
2023/07/22 04:38:45;;;;;;;11.98;5.05;;;12.20;99.90;;;;;;5074986;28;20412;-64
2023/07/22 04:41:11;;;;;;;12.55;5.68;;;12.20;99.90;;;;;;5056875;28;20055;-63
2023/07/22 04:43:39;;;;;;;10.70;5.50;;;12.30;99.90;;;;;;5056263;28;20102;-64
2023/07/22 04:46:07;;;;;;;10.93;5.50;;;12.30;99.90;;;;;;5074869;28;20427;-63
2023/07/22 04:48:34;;;;;;;10.38;5.45;;;12.30;99.90;;;;;;5074812;28;20127;-64
2023/07/22 04:51:02;;;;;;;9.75;5.03;;;12.40;99.90;;;;;;5056035;28;20055;-63
2023/07/22 04:53:29;;;;;;;10.35;5.25;;;12.40;99.90;;;;;;5056406;28;20048;-63
2023/07/22 04:55:56;;;;;;;12.45;5.15;;;12.40;99.90;;;;;;5074522;28;20049;-64
2023/07/22 04:58:24;;;;;;;10.13;5.60;;;12.50;99.90;;;;;;5073947;28;20051;-63
2023/07/22 05:00:51;;;;;;;10.50;5.32;;;12.50;99.90;;;;;;5056412;28;20045;-64
2023/07/22 05:03:19;;;;;;;10.13;5.63;;;12.60;99.90;;;;;;5072396;28;20455;-63
2023/07/22 05:05:46;;;;;;;10.65;5.90;;;12.60;99.90;;;;;;5074080;28;20044;-64
2023/07/22 05:08:14;;;;;;;9.45;5.82;;;12.60;99.90;;;;;;5072091;28;20135;-65
2023/07/22 05:10:41;;;;;;;11.80;6.28;;;12.70;99.90;;;;;;5056403;28;20496;-65
2023/07/22 05:13:08;;;;;;;12.52;5.95;;;12.80;99.90;;;;;;5055796;28;20475;-64
2023/07/22 05:15:35;;;;;;;13.48;6.70;;;12.90;99.90;;;;;;5074123;28;20048;-64
2023/07/22 05:18:02;;;;;;;10.40;6.40;;;13.00;99.90;;;;;;5073218;28;20049;-64
2023/07/22 05:20:29;;;;;;;11.43;6.25;;;13.00;99.90;;;;;;5073871;28;20040;-61
2023/07/22 05:22:56;;;;;;;9.82;5.53;;;13.10;99.90;;;;;;5073982;28;20060;-64
2023/07/22 05:25:25;;;;;;;9.38;5.85;;;13.20;99.90;;;;;;5073246;28;20106;-63
2023/07/22 05:27:51;;;;;;;9.63;5.65;;;13.40;99.90;;;;;;5073917;28;20048;-64
2023/07/22 05:30:18;;;;;;;9.63;6.00;;;13.40;99.90;;;;;;5071782;28;20044;-63
2023/07/22 05:32:45;;;;;;;10.77;5.55;;;13.50;99.90;;;;;;5073320;28;20067;-61
2023/07/22 05:35:12;;;;;;;9.02;5.63;;;13.60;99.90;;;;;;5073865;28;20389;-61
2023/07/22 05:37:39;;;;;;;11.32;5.50;;;13.80;99.90;;;;;;5073447;28;20052;-62
2023/07/22 05:40:08;;;;;;;10.57;6.13;;;14.00;99.90;;;;;;5073167;28;20036;-61
2023/07/22 05:42:36;;;;;;;10.18;5.75;;;14.20;99.90;;;;;;5073628;28;20049;-61
2023/07/22 05:45:03;;;;;;;12.43;7.05;;;14.40;99.90;;;;;;5071028;28;20048;-62
2023/07/22 05:47:30;;;;;;;10.07;6.15;;;14.60;99.90;;;;;;5059538;28;20056;-62
2023/07/22 05:49:57;;;;;;;8.75;5.32;;;14.70;99.90;;;;;;5068160;28;20053;-62
2023/07/22 05:52:24;;;;;;;10.77;5.68;;;14.80;99.90;;;;;;5072326;28;20048;-62
2023/07/22 05:54:51;;;;;;;10.70;5.88;;;15.10;99.90;;;;;;5069989;28;20048;-62
2023/07/22 05:57:18;;;;;;;9.82;5.35;;;15.10;99.90;;;;;;5053951;28;20056;-62
2023/07/22 05:59:46;;;;;;;10.05;5.65;;;15.20;99.90;;;;;;5052880;28;20056;-62
2023/07/22 06:02:14;;;;;;;10.85;5.50;;;15.30;99.90;;;;;;5053691;28;20106;-62
2023/07/22 06:04:41;;;;;;;13.35;6.40;;;15.40;99.90;;;;;;5052930;28;20052;-62
2023/07/22 06:07:08;;;;;;;11.88;6.20;;;15.40;99.90;;;;;;5071635;28;20056;-62
2023/07/22 06:09:36;;;;;;;11.50;5.68;;;15.60;99.90;;;;;;5070948;28;20079;-62
2023/07/22 06:12:03;;;;;;;10.93;6.57;;;15.80;99.90;;;;;;5054299;28;20059;-62
2023/07/22 06:14:30;;;;;;;10.05;5.95;;;15.90;99.90;;;;;;5067707;28;20102;-62
2023/07/22 06:16:58;;;;;;;9.15;5.78;;;16.10;99.90;;;;;;5072583;28;20161;-62
2023/07/22 06:19:25;;;;;;;10.75;6.22;;;16.20;99.90;;;;;;5049569;28;20059;-62
2023/07/22 06:21:52;;;;;;;13.50;6.00;;;16.30;99.90;;;;;;5071480;28;20071;-62
2023/07/22 06:24:19;;;;;;;11.60;6.18;;;16.50;99.90;;;;;;5068779;28;20451;-61
2023/07/22 06:26:46;;;;;;;9.40;6.30;;;16.50;99.90;;;;;;5052923;28;20048;-61
2023/07/22 06:29:13;;;;;;;12.75;6.53;;;16.60;99.90;;;;;;5069704;28;20051;-62
2023/07/22 06:31:40;;;;;;;8.80;5.95;;;16.80;99.90;;;;;;5052154;28;20061;-62
2023/07/22 06:34:08;;;;;;;9.65;6.25;;;16.90;99.90;;;;;;5053803;28;20114;-62
2023/07/22 06:36:35;;;;;;;14.55;6.88;;;16.90;99.90;;;;;;5045728;28;20045;-61
2023/07/22 06:39:02;;;;;;;12.20;6.78;;;17.00;99.90;;;;;;5071535;28;20489;-61
2023/07/22 06:41:29;;;;;;;11.80;6.78;;;17.30;99.90;;;;;;5069366;28;20055;-61
2023/07/22 06:43:56;;;;;;;10.18;6.25;;;17.50;99.90;;;;;;5069891;28;20098;-62
2023/07/22 06:46:23;;;;;;;9.10;6.03;;;17.80;99.90;;;;;;5068128;28;20048;-62
2023/07/22 06:48:50;;;;;;;14.07;6.97;;;17.90;99.90;;;;;;5071636;28;20059;-62
2023/07/22 06:51:18;;;;;;;11.80;7.25;;;18.10;99.90;;;;;;5050775;28;20040;-61
2023/07/22 06:53:46;;;;;;;11.60;6.88;;;18.10;99.90;;;;;;5071142;28;20059;-62
2023/07/22 06:56:12;;;;;;;10.63;6.97;;;18.20;99.90;;;;;;5052736;28;20134;-61
2023/07/22 06:58:39;;;;;;;11.63;6.45;;;18.30;99.90;;;;;;5070436;28;20512;-61
2023/07/22 07:01:06;;;;;;;10.95;6.07;;;18.40;99.90;;;;;;5069669;28;20052;-61
2023/07/22 07:03:33;;;;;;;9.30;6.93;;;18.60;99.90;;;;;;5070946;28;20048;-62
2023/07/22 07:06:01;;;;;;;10.40;6.82;;;18.60;99.90;;;;;;5069655;28;20434;-62
2023/07/22 07:08:30;;;;;;;12.02;6.53;;;18.60;99.90;;;;;;5071099;28;20052;-62
2023/07/22 07:10:57;;;;;;;9.88;6.22;;;18.70;99.90;;;;;;5069437;28;20055;-62
2023/07/22 07:13:24;;;;;;;10.93;6.47;;;18.80;99.90;;;;;;5052248;28;20079;-62
2023/07/22 07:15:51;;;;;;;11.07;6.50;;;18.80;99.90;;;;;;5069973;28;20055;-62
2023/07/22 07:18:17;;;;;;;9.55;6.30;;;18.80;99.90;;;;;;5050722;28;20061;-62
2023/07/22 07:20:45;;;;;;;9.18;6.15;;;18.80;99.90;;;;;;5053006;28;20045;-61
2023/07/22 07:23:12;;;;;;;9.52;6.75;;;18.70;99.90;;;;;;5069965;28;20070;-61
2023/07/22 07:25:40;;;;;;;10.45;6.05;;;18.50;99.90;;;;;;5070509;28;20049;-61
2023/07/22 07:28:07;;;;;;;10.10;7.13;;;18.40;99.90;;;;;;5067549;28;20090;-61
2023/07/22 07:30:34;;;;;;;8.93;6.20;;;18.20;99.90;;;;;;5052844;28;20142;-62
2023/07/22 07:33:01;;;;;;;10.73;6.90;;;18.10;99.90;;;;;;5069545;28;20076;-62
2023/07/22 07:35:28;;;;;;;15.68;7.40;;;18.00;99.90;;;;;;5070632;28;20064;-62
2023/07/22 07:37:55;;;;;;;14.55;7.70;;;18.10;99.90;;;;;;5051174;28;20060;-62
2023/07/22 07:40:22;;;;;;;12.13;6.72;;;18.10;99.90;;;;;;5070240;28;20045;-62
2023/07/22 07:42:50;;;;;;;10.50;6.63;;;18.10;99.90;;;;;;5055880;28;20060;-63
2023/07/22 07:45:17;;;;;;;12.20;6.90;;;18.10;99.90;;;;;;5075007;28;20048;-62
2023/07/22 07:47:44;;;;;;;12.85;7.22;;;18.10;99.90;;;;;;5072566;28;20045;-62
2023/07/22 07:50:11;;;;;;;10.77;6.10;;;18.20;99.90;;;;;;5074899;28;20041;-62
2023/07/22 07:52:39;;;;;;;12.65;6.72;;;18.30;99.90;;;;;;5055766;28;20044;-62
2023/07/22 07:55:07;;;;;;;12.98;7.82;;;18.40;99.90;;;;;;5056180;28;20049;-62
2023/07/22 07:57:34;;;;;;;9.10;6.00;;;18.70;99.90;;;;;;5074280;28;20385;-62
2023/07/22 08:00:03;;;;;;;8.82;6.18;;;19.20;99.90;;;;;;5075013;28;20052;-62
2023/07/22 08:02:30;;;;;;;9.70;6.30;;;19.50;99.90;;;;;;5074916;28;20084;-61
2023/07/22 08:04:57;;;;;;;8.82;6.05;;;19.90;99.90;;;;;;5057731;28;20059;-62
2023/07/22 08:07:24;;;;;;;12.32;6.72;;;20.30;99.90;;;;;;5072654;28;20461;-62
2023/07/22 08:09:52;;;;;;;11.25;6.35;;;20.50;99.90;;;;;;5057263;28;20052;-62
2023/07/22 08:12:19;;;;;;;10.23;5.90;;;20.60;99.90;;;;;;5057588;28;20053;-62
2023/07/22 08:14:46;;;;;;;8.77;5.88;;;20.70;99.90;;;;;;5056628;28;20136;-62
2023/07/22 08:17:15;;;;;;;8.38;5.75;;;20.70;99.90;;;;;;5057318;28;20127;-62
2023/07/22 08:19:41;;;;;;;9.32;5.60;;;20.50;99.90;;;;;;5075218;28;20074;-62
2023/07/22 08:22:08;;;;;;;8.10;5.50;;;20.10;99.90;;;;;;5074756;28;20382;-62
2023/07/22 08:24:35;;;;;;;6.95;5.28;;;20.00;99.90;;;;;;5074914;28;20071;-62
2023/07/22 08:27:02;;;;;;;7.90;4.97;;;19.90;99.90;;;;;;5057166;28;20055;-61
2023/07/22 08:29:29;;;;;;;9.50;5.32;;;19.90;99.90;;;;;;5074429;28;20056;-62
2023/07/22 08:31:56;;;;;;;7.60;5.32;;;19.80;99.90;;;;;;5075174;28;20052;-62
2023/07/22 08:34:25;;;;;;;7.45;5.13;;;19.60;99.90;;;;;;5075221;28;20404;-61
2023/07/22 08:36:52;;;;;;;8.90;5.35;;;19.80;99.90;;;;;;5074181;28;20431;-62
2023/07/22 08:39:19;;;;;;;8.57;5.90;;;19.70;99.90;;;;;;5074734;28;20552;-62
2023/07/22 08:41:50;;;;;;;10.07;6.15;;;19.80;99.90;;;;;;5075031;28;20045;-62
2023/07/22 08:44:20;;;;;;;7.68;5.13;;;19.80;99.90;;;;;;5056205;28;20403;-64
2023/07/22 08:46:50;;;;;;;8.10;5.50;;;20.00;99.90;;;;;;5056927;28;20056;-61
2023/07/22 08:49:17;;;;;;;9.35;5.72;;;20.40;99.90;;;;;;5074176;28;20052;-62
2023/07/22 08:51:46;;;;;;;14.23;5.03;;;21.00;99.90;;;;;;5056556;28;20044;-61
2023/07/22 08:54:14;;;;;;;8.55;5.13;;;21.40;99.90;;;;;;5055545;28;20127;-62
2023/07/22 08:56:43;;;;;;;7.22;5.32;;;21.40;99.90;;;;;;5056245;28;20114;-62
2023/07/22 08:59:11;;;;;;;11.77;5.90;;;21.50;99.90;;;;;;5056533;28;20458;-62
2023/07/22 09:01:39;;;;;;;10.13;5.95;;;21.90;99.90;;;;;;5074279;28;20040;-63
2023/07/22 09:04:06;;;;;;;6.68;4.43;;;22.00;99.90;;;;;;5052928;28;20049;-63
2023/07/22 09:06:35;;;;;;;7.22;4.65;;;22.20;99.90;;;;;;5055999;28;20044;-62
2023/07/22 09:09:07;;;;;;;7.13;4.57;;;22.30;99.90;;;;;;5071772;28;20052;-63
2023/07/22 09:11:35;;;;;;;7.35;4.57;;;22.10;99.90;;;;;;5074027;28;20052;-62
2023/07/22 09:14:03;;;;;;;6.75;4.20;;;22.20;99.90;;;;;;5074427;28;20055;-62
2023/07/22 09:16:31;;;;;;;6.32;4.18;;;21.90;99.90;;;;;;5072404;28;20036;-63
2023/07/22 09:18:59;;;;;;;7.30;4.15;;;21.70;99.90;;;;;;5073534;28;20083;-62
2023/07/22 09:21:27;;;;;;;7.20;4.70;;;21.60;99.90;;;;;;5074186;28;20040;-62
2023/07/22 09:23:54;;;;;;;8.00;4.70;;;21.40;99.90;;;;;;5056168;28;20059;-62
2023/07/22 09:26:23;;;;;;;8.13;4.70;;;21.00;99.90;;;;;;5062568;28;20091;-61
2023/07/22 09:28:51;;;;;;;9.50;5.30;;;20.70;99.90;;;;;;5070990;28;20501;-62
2023/07/22 09:31:18;;;;;;;9.00;5.32;;;20.40;99.90;;;;;;5070761;28;20456;-62
2023/07/22 09:33:45;;;;;;;9.43;5.75;;;20.00;99.90;;;;;;5072612;28;20055;-63
2023/07/22 09:36:12;;;;;;;10.00;6.60;;;19.40;99.90;;;;;;5072893;28;20048;-62
2023/07/22 09:38:39;;;;;;;12.27;7.53;;;18.70;99.90;;;;;;5051566;28;20501;-62
2023/07/22 09:41:07;;;;;;;11.55;8.00;;;18.30;99.90;;;;;;5054904;28;20048;-62
2023/07/22 09:43:39;;;;;;;12.02;8.35;;;17.90;99.90;;;;;;5070855;28;20060;-62
2023/07/22 09:46:10;;;;;;;13.75;8.00;;;17.90;99.90;;;;;;5054369;28;20131;-63
2023/07/22 09:48:42;;;;;;;13.45;8.63;;;17.80;99.90;;;;;;5070077;28;20098;-63
2023/07/22 09:51:14;;;;;;;14.68;7.88;;;18.00;99.90;;;;;;5070722;28;20051;-62
2023/07/22 09:53:46;;;;;;;10.68;7.50;;;18.10;99.90;;;;;;5053249;28;20052;-63
2023/07/22 09:56:13;;;;;;;12.55;7.43;;;18.20;99.90;;;;;;5054445;28;20074;-63
2023/07/22 09:58:42;;;;;;;10.60;7.32;;;18.20;99.90;;;;;;5072237;28;20059;-62
2023/07/22 10:01:09;;;;;;;10.30;6.97;;;18.40;99.90;;;;;;5053569;28;20049;-63
2023/07/22 10:03:39;;;;;;;8.30;5.97;;;18.30;99.90;;;;;;5069867;28;20110;-63
2023/07/22 10:06:08;;;;;;;10.18;6.40;;;18.30;99.90;;;;;;5072741;28;20169;-62
2023/07/22 10:08:37;;;;;;;8.40;5.88;;;18.10;99.90;;;;;;5035933;28;20520;-63
2023/07/22 10:11:09;;;;;;;10.23;6.25;;;18.10;99.90;;;;;;5049305;28;20047;-62
2023/07/22 10:13:37;;;;;;;11.57;6.30;;;18.00;99.90;;;;;;5051576;28;20417;-62
2023/07/22 10:16:07;;;;;;;9.38;6.70;;;18.00;99.90;;;;;;5032519;28;20049;-62
2023/07/22 10:18:34;;;;;;;10.38;7.25;;;17.90;99.90;;;;;;5052492;28;20059;-62
2023/07/22 10:21:02;;;;;;;11.85;7.50;;;17.70;99.90;;;;;;5031080;28;20135;-63
2023/07/22 10:23:32;;;;;;;11.10;7.07;;;17.60;99.90;;;;;;5052186;28;20040;-62
2023/07/22 10:26:00;;;;;;;11.93;7.40;;;17.60;99.90;;;;;;5050408;28;20497;-62
2023/07/22 10:28:27;;;;;;;11.23;6.75;;;17.60;99.90;;;;;;5033793;28;20045;-62
2023/07/22 10:30:54;;;;;;;10.60;6.60;;;17.70;99.90;;;;;;5029162;28;20048;-62
2023/07/22 10:33:22;;;;;;;10.82;6.38;;;17.70;99.90;;;;;;5052495;28;20053;-62
2023/07/22 10:36:05;;;;;;;10.75;7.10;;;17.90;99.90;;;;;;5050043;28;20053;-62
2023/07/22 10:38:32;;;;;;;9.00;6.28;;;17.90;99.90;;;;;;5052248;28;20056;-61
2023/07/22 10:40:59;;;;;;;9.00;5.90;;;18.00;99.90;;;;;;5049257;28;20057;-62
2023/07/22 10:43:28;;;;;;;8.50;5.70;;;18.10;99.90;;;;;;5051609;28;20048;-61
2023/07/22 10:45:56;;;;;;;10.70;5.97;;;18.20;99.90;;;;;;5034188;28;20067;-62
2023/07/22 10:48:28;;;;;;;9.00;5.60;;;18.10;99.90;;;;;;5051926;28;20052;-62
2023/07/22 10:51:05;;;;;;;8.88;5.32;;;18.10;99.90;;;;;;5050005;28;20048;-62
2023/07/22 10:53:33;;;;;;;6.22;5.13;;;18.00;99.90;;;;;;5049253;28;20134;-62
2023/07/22 10:56:15;;;;;;;8.80;5.25;;;17.90;99.90;;;;;;5023649;28;20115;-62
2023/07/22 10:59:02;;;;;;;8.48;5.18;;;17.70;99.90;;;;;;5024947;28;20045;-61
2023/07/22 11:01:38;;;;;;;5.90;4.45;;;17.70;99.90;;;;;;5048206;28;20446;-61
2023/07/22 11:04:30;;;;;;;7.30;4.25;;;17.50;99.90;;;;;;5045317;28;20489;-62
2023/07/22 11:06:58;;;;;;;6.45;5.50;;;17.40;99.90;;;;;;5030929;28;20057;-62
2023/07/22 11:09:35;;;;;;;7.43;5.18;;;17.20;99.90;;;;;;5065383;28;20044;-63
2023/07/22 11:12:03;;;;;;;7.22;5.50;;;17.20;99.90;;;;;;5050264;28;20044;-62
2023/07/22 11:14:32;;;;;;;6.95;4.95;;;17.20;99.90;;;;;;5069374;28;20063;-62
2023/07/22 11:17:00;;;;;;;6.90;4.68;;;17.20;99.90;;;;;;5051150;28;20052;-62
2023/07/22 11:19:29;;;;;;;7.88;5.28;;;17.20;99.90;;;;;;5053642;28;20056;-62
2023/07/22 11:21:56;;;;;;;9.85;5.47;;;17.10;99.90;;;;;;5070051;28;20045;-61
2023/07/22 11:24:24;;;;;;;10.30;5.38;;;17.20;99.90;;;;;;5052862;28;20053;-62
2023/07/22 11:26:52;;;;;;;9.18;5.32;;;17.20;99.90;;;;;;5069493;28;20060;-62
2023/07/22 11:29:19;;;;;;;7.38;4.85;;;17.20;99.90;;;;;;5069798;28;20051;-62
2023/07/22 11:31:47;;;;;;;7.15;4.68;;;17.40;99.90;;;;;;5068805;28;20044;-62
2023/07/22 11:34:16;;;;;;;6.25;4.90;;;17.20;99.90;;;;;;5050319;28;20059;-61
2023/07/22 11:36:45;;;;;;;8.05;4.40;;;17.10;99.90;;;;;;5052239;28;20447;-62
2023/07/22 11:39:13;;;;;;;6.72;4.60;;;17.10;99.90;;;;;;5048508;28;20057;-63
2023/07/22 11:41:41;;;;;;;7.50;4.97;;;17.10;99.90;;;;;;5053075;28;20040;-62
2023/07/22 11:44:09;;;;;;;7.30;5.00;;;17.00;99.90;;;;;;5069514;28;20442;-62
2023/07/22 11:46:37;;;;;;;10.88;5.78;;;16.90;99.90;;;;;;5069941;28;20170;-62
2023/07/22 11:49:04;;;;;;;8.05;5.78;;;16.90;99.90;;;;;;5051526;28;20056;-61
2023/07/22 11:51:33;;;;;;;9.57;6.78;;;16.90;99.90;;;;;;5053238;28;20094;-62
2023/07/22 11:54:01;;;;;;;10.90;6.18;;;16.90;99.90;;;;;;5048646;28;20129;-61
2023/07/22 11:56:29;;;;;;;9.77;5.65;;;16.90;99.90;;;;;;5071177;28;20055;-62
2023/07/22 11:58:57;;;;;;;7.95;6.57;;;16.90;99.90;;;;;;5070672;28;20511;-63
2023/07/22 12:01:24;;;;;;;8.10;6.18;;;16.90;99.90;;;;;;5053485;28;20056;-62
2023/07/22 12:03:56;;;;;;;9.43;6.75;;;16.90;99.90;;;;;;5071898;28;20052;-62
2023/07/22 12:06:26;;;;;;;10.60;7.70;;;17.00;99.90;;;;;;5051417;28;20045;-62
2023/07/22 12:08:53;;;;;;;11.25;7.97;;;17.00;99.90;;;;;;5071495;28;20496;-62
2023/07/22 12:11:22;;;;;;;10.25;7.85;;;17.00;99.90;;;;;;5071509;28;20044;-62
2023/07/22 12:14:05;;;;;;;10.73;7.55;;;17.00;99.90;;;;;;5068779;28;20045;-63
2023/07/22 12:16:32;;;;;;;8.57;6.90;;;17.00;99.90;;;;;;5070280;28;20044;-62
2023/07/22 12:18:58;;;;;;;10.98;8.02;;;17.10;99.90;;;;;;5069511;28;20041;-62
2023/07/22 12:21:25;;;;;;;11.30;7.47;;;17.00;99.90;;;;;;5052812;28;20068;-62
2023/07/22 12:23:54;;;;;;;9.80;7.03;;;17.10;99.90;;;;;;5051811;28;20056;-62
2023/07/22 12:26:23;;;;;;;9.65;7.68;;;17.10;99.90;;;;;;5053611;28;20052;-63
2023/07/22 12:28:50;;;;;;;10.25;7.97;;;17.20;99.90;;;;;;5055101;28;20053;-62
2023/07/22 12:31:17;;;;;;;11.02;8.20;;;17.20;99.90;;;;;;5072876;28;20484;-62
2023/07/22 12:33:43;;;;;;;9.98;7.65;;;17.20;99.90;;;;;;5057148;28;20055;-62
2023/07/22 12:36:10;;;;;;;10.13;8.05;;;17.20;99.90;;;;;;5074385;28;20044;-62
2023/07/22 12:38:37;;;;;;;12.20;8.38;;;17.30;99.90;;;;;;5056981;28;20083;-63
2023/07/22 12:41:04;;;;;;;10.48;8.00;;;17.20;99.90;;;;;;5074392;28;20048;-62
2023/07/22 12:43:33;;;;;;;11.10;8.50;;;17.20;99.90;;;;;;5056621;28;20052;-63